createdAt,value
2022-12-22T00:02:38.618Z,14.09
2022-12-22T00:05:32.053Z,14.08
2022-12-22T00:08:17.316Z,14.11
2022-12-22T00:11:03.410Z,14.11
2022-12-22T00:13:48.523Z,14.12
2022-12-22T00:16:35.696Z,14.12
2022-12-22T00:19:21.323Z,14.11
2022-12-22T00:22:07.541Z,14.10
2022-12-22T00:24:52.700Z,14.10
2022-12-22T00:27:45.773Z,13.89
2022-12-22T00:30:32.994Z,14.14
2022-12-22T00:33:22.066Z,14.14
2022-12-22T00:36:08.210Z,14.14
2022-12-22T00:38:53.842Z,14.10
2022-12-22T00:41:40.014Z,14.04
2022-12-22T00:44:25.811Z,14.04
2022-12-22T00:47:11.173Z,14.15
2022-12-22T00:50:04.005Z,14.12
2022-12-22T00:52:50.035Z,13.97
2022-12-22T00:55:38.125Z,14.10
2022-12-22T00:58:29.751Z,14.08
2022-12-22T01:01:15.414Z,13.98
2022-12-22T01:04:00.780Z,13.89
2022-12-22T01:06:50.785Z,14.02
2022-12-22T01:09:36.430Z,14.10
2022-12-22T01:12:28.348Z,14.12
2022-12-22T01:15:13.661Z,14.11
2022-12-22T01:17:59.298Z,14.12
2022-12-22T01:20:44.938Z,14.03
2022-12-22T01:23:32.117Z,14.03
2022-12-22T01:26:17.212Z,14.12
2022-12-22T01:29:02.851Z,14.06
2022-12-22T01:31:50.515Z,14.18
2022-12-22T01:34:36.683Z,14.08
2022-12-22T01:37:21.771Z,14.19
2022-12-22T01:40:08.665Z,14.15
2022-12-22T01:42:53.840Z,14.15
2022-12-22T01:45:42.860Z,14.25
2022-12-22T01:48:30.887Z,14.27
2022-12-22T01:51:16.979Z,14.27
2022-12-22T01:54:02.268Z,14.29
2022-12-22T01:56:50.631Z,14.20
2022-12-22T01:59:35.929Z,14.27
2022-12-22T02:02:24.610Z,14.19
2022-12-22T02:05:11.181Z,14.28
2022-12-22T02:08:15.021Z,14.31
2022-12-22T02:11:18.889Z,14.28
2022-12-22T02:14:18.536Z,14.13
2022-12-22T02:17:13.700Z,14.32
2022-12-22T02:20:21.591Z,14.32
2022-12-22T02:23:19.847Z,14.34
2022-12-22T02:26:13.820Z,14.35
2022-12-22T02:29:01.918Z,14.35
2022-12-22T02:31:54.351Z,14.32
2022-12-22T02:34:39.476Z,14.23
2022-12-22T02:37:35.578Z,14.39
2022-12-22T02:40:23.339Z,14.43
2022-12-22T02:43:21.338Z,14.18
2022-12-22T02:46:16.402Z,14.43
2022-12-22T02:49:09.550Z,14.38
2022-12-22T02:52:02.960Z,14.41
2022-12-22T02:54:51.403Z,14.39
2022-12-22T02:57:37.478Z,14.33
2022-12-22T03:00:26.120Z,14.38
2022-12-22T03:03:13.006Z,14.38
2022-12-22T03:05:59.414Z,14.37
2022-12-22T03:08:44.473Z,14.24
2022-12-22T03:11:30.014Z,14.35
2022-12-22T03:14:16.241Z,14.38
2022-12-22T03:17:02.544Z,14.38
2022-12-22T03:19:49.859Z,14.34
2022-12-22T03:22:35.036Z,14.21
2022-12-22T03:25:20.711Z,14.33
2022-12-22T03:27:49.071Z,14.32
2022-12-22T03:30:17.404Z,14.19
2022-12-22T03:32:45.301Z,14.30
2022-12-22T03:35:15.500Z,14.20
2022-12-22T03:37:43.811Z,14.34
2022-12-22T03:40:13.284Z,14.27
2022-12-22T03:42:58.738Z,14.33
2022-12-22T03:45:44.271Z,14.31
2022-12-22T03:48:12.508Z,14.26
2022-12-22T03:50:42.236Z,14.12
2022-12-22T03:53:10.117Z,14.10
2022-12-22T03:55:38.312Z,14.32
2022-12-22T03:58:06.569Z,14.18
2022-12-22T04:00:34.520Z,14.21
2022-12-22T04:03:03.061Z,14.31
2022-12-22T04:05:31.370Z,14.32
2022-12-22T04:08:00.674Z,14.32
2022-12-22T04:10:46.591Z,14.09
2022-12-22T04:13:14.780Z,14.31
2022-12-22T04:15:42.808Z,14.18
2022-12-22T04:18:11.299Z,14.31
2022-12-22T04:20:39.177Z,14.36
2022-12-22T04:23:09.025Z,14.28
2022-12-22T04:25:37.329Z,14.18
2022-12-22T04:28:05.469Z,14.02
2022-12-22T04:30:33.890Z,14.29
2022-12-22T04:33:02.186Z,14.31
2022-12-22T04:35:29.938Z,14.39
2022-12-22T04:37:58.463Z,14.40
2022-12-22T04:40:28.203Z,14.24
2022-12-22T04:42:56.141Z,14.42
2022-12-22T04:45:24.518Z,14.12
2022-12-22T04:47:52.844Z,14.31
2022-12-22T04:50:20.693Z,14.25
2022-12-22T04:52:49.204Z,14.13
2022-12-22T04:55:17.246Z,14.30
2022-12-22T04:57:46.897Z,14.37
2022-12-22T05:00:16.207Z,14.28
2022-12-22T05:02:44.363Z,14.33
2022-12-22T05:05:12.839Z,14.03
2022-12-22T05:07:40.857Z,14.31
2022-12-22T05:10:10.320Z,14.13
2022-12-22T05:12:57.848Z,14.06
2022-12-22T05:15:32.797Z,14.30
2022-12-22T05:18:02.791Z,14.31
2022-12-22T05:20:31.553Z,14.31
2022-12-22T05:23:00.108Z,14.28
2022-12-22T05:25:34.404Z,14.30
2022-12-22T05:28:03.143Z,14.27
2022-12-22T05:30:32.755Z,14.12
2022-12-22T05:33:00.673Z,14.31
2022-12-22T05:35:28.709Z,14.15
2022-12-22T05:37:57.017Z,14.17
2022-12-22T05:40:25.323Z,14.24
2022-12-22T05:42:53.265Z,14.06
2022-12-22T05:45:22.416Z,13.84
2022-12-22T05:47:53.724Z,14.16
2022-12-22T05:50:25.144Z,14.19
2022-12-22T05:52:53.649Z,14.12
2022-12-22T05:55:21.927Z,14.27
2022-12-22T05:57:50.412Z,14.04
2022-12-22T06:00:19.528Z,13.93
2022-12-22T06:02:47.548Z,14.16
2022-12-22T06:05:17.399Z,14.03
2022-12-22T06:07:45.337Z,14.15
2022-12-22T06:10:14.731Z,14.23
2022-12-22T06:12:43.876Z,14.22
2022-12-22T06:15:15.597Z,14.20
2022-12-22T06:17:45.175Z,14.16
2022-12-22T06:20:15.648Z,14.07
2022-12-22T06:22:45.309Z,14.14
2022-12-22T06:25:18.123Z,14.15
2022-12-22T06:27:46.721Z,13.78
2022-12-22T06:30:15.690Z,13.91
2022-12-22T06:32:43.914Z,14.13
2022-12-22T06:35:12.630Z,14.11
2022-12-22T06:37:40.634Z,14.10
2022-12-22T06:40:11.309Z,14.10
2022-12-22T06:43:02.129Z,14.02
2022-12-22T06:45:34.149Z,13.94
2022-12-22T06:48:02.501Z,14.02
2022-12-22T06:50:30.558Z,14.06
2022-12-22T06:52:59.096Z,14.06
2022-12-22T06:55:28.891Z,13.92
2022-12-22T06:57:56.691Z,13.88
2022-12-22T07:00:26.928Z,13.99
2022-12-22T07:02:55.363Z,13.63
2022-12-22T07:05:24.756Z,13.99
2022-12-22T07:07:53.242Z,14.00
2022-12-22T07:10:41.602Z,13.91
2022-12-22T07:13:20.793Z,13.98
2022-12-22T07:15:55.669Z,13.98
2022-12-22T07:18:27.964Z,13.96
2022-12-22T07:20:56.246Z,13.95
2022-12-22T07:23:23.915Z,13.95
2022-12-22T07:25:52.026Z,13.96
2022-12-22T07:28:21.722Z,13.95
2022-12-22T07:30:49.548Z,13.95
2022-12-22T07:33:17.900Z,13.93
2022-12-22T07:35:46.598Z,13.92
2022-12-22T07:38:14.366Z,13.92
2022-12-22T07:40:43.527Z,13.92
2022-12-22T07:43:12.201Z,13.90
2022-12-22T07:45:41.230Z,13.91
2022-12-22T07:48:29.318Z,13.91
2022-12-22T07:51:02.409Z,13.84
2022-12-22T07:53:30.618Z,13.95
2022-12-22T07:55:58.849Z,13.94
2022-12-22T07:58:26.463Z,13.93
2022-12-22T08:01:00.431Z,13.92
2022-12-22T08:03:29.006Z,13.89
2022-12-22T08:05:56.770Z,13.88
2022-12-22T08:08:24.958Z,13.81
2022-12-22T08:10:55.445Z,13.81
2022-12-22T08:13:23.391Z,13.80
2022-12-22T08:15:51.711Z,13.76
2022-12-22T08:18:20.890Z,13.73
2022-12-22T08:20:51.923Z,13.59
2022-12-22T08:23:20.410Z,13.68
2022-12-22T08:25:53.591Z,13.68
2022-12-22T08:28:21.648Z,13.59
2022-12-22T08:30:49.671Z,13.65
2022-12-22T08:33:19.177Z,13.68
2022-12-22T08:35:48.304Z,13.67
2022-12-22T08:38:16.046Z,13.64
2022-12-22T08:40:46.654Z,13.55
2022-12-22T08:43:14.703Z,13.66
2022-12-22T08:45:43.849Z,13.63
2022-12-22T08:48:11.637Z,13.55
2022-12-22T08:50:39.868Z,13.63
2022-12-22T08:53:29.721Z,13.50
2022-12-22T08:55:58.550Z,13.55
2022-12-22T08:58:26.180Z,13.59
2022-12-22T09:00:54.002Z,13.58
2022-12-22T09:03:21.866Z,13.57
2022-12-22T09:05:49.801Z,13.57
2022-12-22T09:08:18.833Z,13.57
2022-12-22T09:10:46.454Z,13.55
2022-12-22T09:13:14.977Z,13.52
2022-12-22T09:15:42.593Z,13.54
2022-12-22T09:18:10.467Z,13.49
2022-12-22T09:20:38.293Z,13.56
2022-12-22T09:23:05.934Z,13.55
2022-12-22T09:25:35.843Z,13.57
2022-12-22T09:28:03.565Z,13.59
2022-12-22T09:30:31.549Z,13.58
2022-12-22T09:32:59.413Z,13.60
2022-12-22T09:35:27.313Z,13.58
2022-12-22T09:37:55.182Z,13.58
2022-12-22T09:40:24.627Z,13.59
2022-12-22T09:42:53.808Z,13.61
2022-12-22T09:45:21.523Z,13.48
2022-12-22T09:47:53.721Z,13.52
2022-12-22T09:50:24.510Z,13.61
2022-12-22T09:52:56.113Z,13.62
2022-12-22T09:55:38.328Z,13.63
2022-12-22T09:58:24.051Z,13.62
2022-12-22T10:01:02.895Z,13.61
2022-12-22T10:03:37.932Z,13.50
2022-12-22T10:06:12.306Z,13.58
2022-12-22T10:08:42.157Z,13.55
2022-12-22T10:11:14.696Z,13.53
2022-12-22T10:13:44.332Z,13.50
2022-12-22T10:16:21.213Z,13.44
2022-12-22T10:19:08.110Z,13.38
2022-12-22T10:21:46.357Z,13.33
2022-12-22T10:24:18.997Z,13.27
2022-12-22T10:26:47.085Z,13.16
2022-12-22T10:29:19.697Z,13.20
2022-12-22T10:31:59.885Z,13.16
2022-12-22T10:34:28.159Z,13.11
2022-12-22T10:37:00.259Z,13.08
2022-12-22T10:39:30.253Z,12.70
2022-12-22T10:42:02.808Z,13.05
2022-12-22T10:44:35.540Z,13.01
2022-12-22T10:47:17.317Z,13.00
2022-12-22T10:49:48.143Z,12.81
2022-12-22T10:52:21.248Z,12.86
2022-12-22T10:54:52.093Z,12.92
2022-12-22T10:57:29.969Z,12.82
2022-12-22T11:00:01.202Z,12.90
2022-12-22T11:02:33.030Z,12.89
2022-12-22T11:05:07.916Z,12.89
2022-12-22T11:07:37.522Z,12.84
2022-12-22T11:10:18.393Z,12.83
2022-12-22T11:13:00.304Z,12.91
2022-12-22T11:15:36.182Z,12.92
2022-12-22T11:18:12.387Z,12.92
2022-12-22T11:20:52.051Z,12.93
2022-12-22T11:23:26.868Z,12.95
2022-12-22T11:26:04.484Z,12.95
2022-12-22T11:28:56.023Z,12.93
2022-12-22T11:31:38.429Z,12.99
2022-12-22T11:34:21.062Z,13.02
2022-12-22T11:37:03.494Z,12.96
2022-12-22T11:39:41.475Z,13.02
2022-12-22T11:42:26.245Z,12.91
2022-12-22T11:45:06.512Z,13.05
2022-12-22T11:47:45.972Z,13.07
2022-12-22T11:51:02.724Z,13.08
2022-12-22T11:53:33.074Z,13.08
2022-12-22T11:56:13.855Z,13.09
2022-12-22T11:58:55.567Z,13.13
2022-12-22T12:01:41.223Z,13.16
2022-12-22T12:04:33.523Z,13.01
2022-12-22T12:07:26.215Z,13.13
2022-12-22T12:10:04.702Z,13.15
2022-12-22T12:12:42.429Z,13.15
2022-12-22T12:15:24.275Z,13.10
2022-12-22T12:18:08.634Z,13.13
2022-12-22T12:20:50.683Z,13.11
2022-12-22T12:23:37.496Z,13.07
2022-12-22T12:26:13.248Z,13.17
2022-12-22T12:28:54.804Z,13.17
2022-12-22T12:31:29.518Z,13.18
2022-12-22T12:34:01.078Z,13.13
2022-12-22T12:36:41.345Z,13.23
2022-12-22T12:39:17.348Z,13.28
2022-12-22T12:42:02.965Z,13.31
2022-12-22T12:44:35.502Z,13.33
2022-12-22T12:47:21.633Z,13.26
2022-12-22T12:49:57.758Z,13.31
2022-12-22T12:53:15.532Z,13.40
2022-12-22T12:56:10.253Z,13.34
2022-12-22T12:58:55.108Z,13.45
2022-12-22T13:01:59.933Z,13.45
2022-12-22T13:05:21.347Z,13.50
2022-12-22T13:08:14.374Z,13.51
2022-12-22T13:10:48.734Z,13.52
2022-12-22T13:13:48.877Z,13.54
2022-12-22T13:16:35.544Z,13.54
2022-12-22T13:19:16.724Z,13.55
2022-12-22T13:21:55.031Z,13.51
2022-12-22T13:24:28.915Z,13.51
2022-12-22T13:27:03.549Z,13.51
2022-12-22T13:29:44.772Z,13.51
2022-12-22T13:32:22.640Z,13.51
2022-12-22T13:37:49.984Z,13.51
2022-12-22T13:40:20.186Z,13.50
2022-12-22T13:42:50.464Z,13.50
2022-12-22T13:45:32.872Z,13.52
2022-12-22T13:48:02.779Z,13.52
2022-12-22T13:50:35.231Z,13.53
2022-12-22T13:53:07.609Z,13.54
2022-12-22T13:55:36.799Z,13.50
2022-12-22T13:58:09.770Z,13.54
2022-12-22T14:00:38.955Z,13.55
2022-12-22T14:03:27.682Z,13.56
2022-12-22T14:06:03.744Z,13.54
2022-12-22T14:08:32.043Z,13.55
2022-12-22T14:10:59.773Z,13.55
2022-12-22T14:13:35.110Z,13.56
2022-12-22T14:16:05.747Z,13.57
2022-12-22T14:18:34.457Z,13.50
2022-12-22T14:21:03.572Z,13.55
2022-12-22T14:23:35.679Z,13.58
2022-12-22T14:26:07.315Z,13.61
2022-12-22T14:28:43.158Z,13.62
2022-12-22T14:31:14.925Z,13.60
2022-12-22T14:33:52.733Z,13.66
2022-12-22T14:36:24.039Z,13.64
2022-12-22T14:38:53.956Z,13.67
2022-12-22T14:41:43.090Z,13.68
2022-12-22T14:44:16.207Z,13.70
2022-12-22T14:46:46.901Z,13.72
2022-12-22T14:49:17.691Z,13.70
2022-12-22T14:52:00.759Z,13.70
2022-12-22T14:54:29.400Z,13.72
2022-12-22T14:57:03.757Z,13.79
2022-12-22T14:59:32.348Z,13.80
2022-12-22T15:02:04.089Z,13.83
2022-12-22T15:04:32.860Z,13.85
2022-12-22T15:07:37.582Z,13.88
2022-12-22T15:10:18.415Z,13.89
2022-12-22T15:12:47.734Z,13.91
2022-12-22T15:15:17.468Z,13.86
2022-12-22T15:17:49.556Z,13.76
2022-12-22T15:20:21.831Z,13.79
2022-12-22T15:22:50.598Z,13.85
2022-12-22T15:25:20.876Z,13.73
2022-12-22T15:27:49.151Z,13.44
2022-12-22T15:30:27.766Z,13.95
2022-12-22T15:32:58.018Z,13.64
2022-12-22T15:35:31.400Z,13.90
2022-12-22T15:37:59.309Z,13.90
2022-12-22T15:40:28.680Z,13.98
2022-12-22T15:42:57.339Z,13.98
2022-12-22T15:45:25.230Z,13.99
2022-12-22T15:47:56.223Z,13.95
2022-12-22T15:50:32.156Z,14.06
2022-12-22T15:53:06.666Z,14.04
2022-12-22T15:55:36.140Z,13.94
2022-12-22T15:58:05.324Z,13.81
2022-12-22T16:00:33.255Z,14.06
2022-12-22T16:03:01.651Z,14.04
2022-12-22T16:05:30.980Z,14.01
2022-12-22T16:07:58.795Z,14.05
2022-12-22T16:10:29.840Z,13.98
2022-12-22T16:13:01.434Z,14.04
2022-12-22T16:15:31.164Z,14.00
2022-12-22T16:17:59.486Z,13.90
2022-12-22T16:20:33.031Z,14.04
2022-12-22T16:23:08.654Z,14.09
2022-12-22T16:25:39.870Z,14.08
2022-12-22T16:28:08.704Z,14.06
2022-12-22T16:30:36.534Z,13.70
2022-12-22T16:33:04.734Z,13.93
2022-12-22T16:35:33.049Z,13.84
2022-12-22T16:38:01.404Z,14.09
2022-12-22T16:40:33.898Z,13.81
2022-12-22T16:45:52.920Z,14.09
2022-12-22T16:48:33.537Z,14.12
2022-12-22T16:51:01.619Z,13.77
2022-12-22T16:53:29.393Z,14.07
2022-12-22T16:56:00.961Z,13.91
2022-12-22T16:58:28.880Z,14.08
2022-12-22T17:00:57.089Z,14.09
2022-12-22T17:03:28.379Z,13.81
2022-12-22T17:06:00.114Z,14.11
2022-12-22T17:08:32.268Z,13.83
2022-12-22T17:11:10.407Z,13.79
2022-12-22T17:13:39.891Z,13.67
2022-12-22T17:16:08.592Z,13.88
2022-12-22T17:18:37.364Z,13.92
2022-12-22T17:21:06.446Z,14.07
2022-12-22T17:23:39.059Z,14.12
2022-12-22T17:26:10.906Z,14.12
2022-12-22T17:28:40.110Z,14.15
2022-12-22T17:31:08.653Z,14.06
2022-12-22T17:33:36.368Z,14.14
2022-12-22T17:36:04.701Z,14.15
2022-12-22T17:38:32.648Z,13.92
2022-12-22T17:41:03.133Z,13.89
2022-12-22T17:43:32.520Z,13.76
2022-12-22T17:46:00.561Z,14.05
2022-12-22T17:48:28.804Z,14.08
2022-12-22T17:50:57.219Z,14.02
2022-12-22T17:53:25.053Z,14.15
2022-12-22T17:56:09.805Z,14.15
2022-12-22T17:58:39.177Z,14.13
2022-12-22T18:01:07.720Z,14.06
2022-12-22T18:03:35.705Z,14.02
2022-12-22T18:06:03.934Z,13.95
2022-12-22T18:08:32.584Z,14.12
2022-12-22T18:11:02.464Z,14.15
2022-12-22T18:13:30.662Z,14.16
2022-12-22T18:16:00.148Z,14.11
2022-12-22T18:18:28.608Z,14.00
2022-12-22T18:21:06.329Z,14.10
2022-12-22T18:23:37.076Z,14.10
2022-12-22T18:26:06.621Z,14.18
2022-12-22T18:28:34.377Z,13.95
2022-12-22T18:31:04.271Z,13.99
2022-12-22T18:33:32.315Z,14.15
2022-12-22T18:36:00.415Z,14.16
2022-12-22T18:38:30.962Z,14.17
2022-12-22T18:40:59.029Z,14.06
2022-12-22T18:43:26.974Z,14.03
2022-12-22T18:45:55.289Z,14.18
2022-12-22T18:48:24.978Z,14.18
2022-12-22T18:50:53.008Z,14.10
2022-12-22T18:53:28.566Z,14.09
2022-12-22T18:55:57.249Z,13.91
2022-12-22T18:58:25.899Z,14.03
2022-12-22T19:00:56.456Z,13.89
2022-12-22T19:03:29.290Z,14.08
2022-12-22T19:05:57.940Z,14.09
2022-12-22T19:08:27.391Z,14.08
2022-12-22T19:10:57.190Z,13.80
2022-12-22T19:13:29.898Z,14.03
2022-12-22T19:15:59.586Z,14.06
2022-12-22T19:18:29.478Z,14.03
2022-12-22T19:20:57.990Z,13.89
2022-12-22T19:23:26.670Z,14.06
2022-12-22T19:25:58.092Z,14.07
2022-12-22T19:28:29.646Z,14.08
2022-12-22T19:30:57.969Z,13.95
2022-12-22T19:33:35.114Z,13.99
2022-12-22T19:36:03.593Z,13.76
2022-12-22T19:38:32.666Z,14.06
2022-12-22T19:41:03.329Z,14.06
2022-12-22T19:43:32.003Z,14.02
2022-12-22T19:45:59.848Z,13.83
2022-12-22T19:48:30.651Z,14.00
2022-12-22T19:50:58.436Z,13.83
2022-12-22T19:53:26.896Z,13.81
2022-12-22T19:55:57.042Z,13.93
2022-12-22T19:58:29.042Z,13.94
2022-12-22T20:00:57.271Z,13.67
2022-12-22T20:03:26.917Z,13.99
2022-12-22T20:05:56.778Z,14.03
2022-12-22T20:08:24.675Z,13.89
2022-12-22T20:10:58.327Z,13.90
2022-12-22T20:13:28.640Z,14.02
2022-12-22T20:15:56.536Z,13.85
2022-12-22T20:18:27.541Z,14.01
2022-12-22T20:21:04.385Z,13.95
2022-12-22T20:23:36.021Z,13.99
2022-12-22T20:26:07.372Z,13.93
2022-12-22T20:28:37.496Z,14.03
2022-12-22T20:31:07.479Z,14.03
2022-12-22T20:33:35.961Z,14.02
2022-12-22T20:36:14.658Z,14.02
2022-12-22T20:38:43.680Z,13.92
2022-12-22T20:41:12.598Z,14.02
2022-12-22T20:43:41.763Z,14.03
2022-12-22T20:46:15.949Z,14.03
2022-12-22T20:48:45.847Z,14.03
2022-12-22T20:51:18.179Z,14.05
2022-12-22T20:53:47.695Z,13.98
2022-12-22T20:56:25.425Z,14.06
2022-12-22T20:58:53.261Z,14.06
2022-12-22T21:01:24.941Z,14.09
2022-12-22T21:03:53.241Z,14.09
2022-12-22T21:06:29.340Z,13.98
2022-12-22T21:08:59.462Z,13.82
2022-12-22T21:11:28.558Z,13.70
2022-12-22T21:13:58.277Z,14.12
2022-12-22T21:16:28.418Z,14.15
2022-12-22T21:18:56.871Z,14.14
2022-12-22T21:21:26.202Z,13.87
2022-12-22T21:23:54.046Z,13.91
2022-12-22T21:26:32.065Z,14.17
2022-12-22T21:29:00.887Z,14.11
2022-12-22T21:31:29.130Z,14.06
2022-12-22T21:33:57.039Z,14.11
2022-12-22T21:36:29.386Z,14.16
2022-12-22T21:39:00.338Z,14.07
2022-12-22T21:41:42.550Z,14.06
2022-12-22T21:44:12.434Z,14.13
2022-12-22T21:46:40.960Z,14.11
2022-12-22T21:49:16.413Z,14.05
2022-12-22T21:51:45.614Z,14.17
2022-12-22T21:54:13.427Z,14.11
2022-12-22T21:56:41.540Z,13.95
2022-12-22T21:59:09.309Z,14.08
2022-12-22T22:01:37.509Z,14.10
2022-12-22T22:04:05.933Z,14.08
2022-12-22T22:06:33.947Z,13.83
2022-12-22T22:09:05.105Z,14.11
2022-12-22T22:11:33.210Z,13.99
2022-12-22T22:14:01.214Z,14.09
2022-12-22T22:16:29.233Z,13.94
2022-12-22T22:18:57.396Z,14.09
2022-12-22T22:21:25.129Z,13.71
2022-12-22T22:23:54.835Z,14.10
2022-12-22T22:26:24.126Z,14.02
2022-12-22T22:28:54.697Z,14.12
2022-12-22T22:31:22.516Z,13.85
2022-12-22T22:33:51.012Z,13.88
2022-12-22T22:36:18.872Z,14.11
2022-12-22T22:38:47.298Z,14.06
2022-12-22T22:41:15.109Z,14.10
2022-12-22T22:43:44.746Z,14.10
2022-12-22T22:46:12.804Z,13.96
2022-12-22T22:48:42.893Z,13.82
2022-12-22T22:51:12.089Z,14.13
2022-12-22T22:53:43.041Z,13.99
2022-12-22T22:56:10.989Z,14.07
2022-12-22T22:58:39.332Z,13.82
2022-12-22T23:01:13.656Z,14.13
2022-12-22T23:03:42.166Z,14.06
2022-12-22T23:06:13.109Z,14.14
2022-12-22T23:08:41.071Z,13.99
2022-12-22T23:11:14.775Z,13.89
2022-12-22T23:13:43.258Z,14.07
2022-12-22T23:16:13.183Z,14.05
2022-12-22T23:18:41.245Z,14.07
2022-12-22T23:21:10.040Z,14.10
2022-12-22T23:23:38.475Z,13.95
2022-12-22T23:26:07.187Z,14.07
2022-12-22T23:28:35.679Z,13.99
2022-12-22T23:31:03.726Z,14.00
2022-12-22T23:33:33.706Z,14.09
2022-12-22T23:36:01.628Z,14.09
2022-12-22T23:38:30.142Z,14.10
2022-12-22T23:41:04.037Z,13.77
2022-12-22T23:43:32.908Z,14.10
2022-12-22T23:46:00.937Z,14.04
2022-12-22T23:48:29.323Z,14.03
2022-12-22T23:50:58.651Z,14.03
2022-12-22T23:53:27.095Z,13.98
2022-12-22T23:55:54.989Z,14.10
2022-12-22T23:58:23.668Z,14.11
